sensor_id;sensor_type;location;lat;lon;timestamp;pressure;altitude;pressure_sealevel;temperature;humidity
49645;BME280;36494;50.730;-1.932;2024-01-15T00:00:19;100636.82;;;3.61;100.00
49645;BME280;36494;50.730;-1.932;2024-01-15T00:02:45;100633.73;;;3.59;100.00
49645;BME280;36494;50.730;-1.932;2024-01-15T00:05:10;100635.10;;;3.58;100.00
49645;BME280;36494;50.730;-1.932;2024-01-15T00:07:36;100635.02;;;3.51;100.00
49645;BME280;36494;50.730;-1.932;2024-01-15T00:10:01;100637.68;;;3.57;100.00
49645;BME280;36494;50.730;-1.932;2024-01-15T00:12:27;100636.41;;;3.57;100.00
49645;BME280;36494;50.730;-1.932;2024-01-15T00:14:53;100633.69;;;3.58;100.00
49645;BME280;36494;50.730;-1.932;2024-01-15T00:17:18;100633.47;;;3.55;100.00
49645;BME280;36494;50.730;-1.932;2024-01-15T00:19:43;100632.00;;;3.57;100.00
49645;BME280;36494;50.730;-1.932;2024-01-15T00:22:09;100625.95;;;3.41;100.00
49645;BME280;36494;50.730;-1.932;2024-01-15T00:24:34;100626.67;;;3.46;100.00
49645;BME280;36494;50.730;-1.932;2024-01-15T00:27:00;100627.32;;;3.48;100.00
49645;BME280;36494;50.730;-1.932;2024-01-15T00:29:25;100626.00;;;3.49;100.00
49645;BME280;36494;50.730;-1.932;2024-01-15T00:31:50;100625.54;;;3.53;100.00
49645;BME280;36494;50.730;-1.932;2024-01-15T00:34:16;100626.05;;;3.46;100.00
49645;BME280;36494;50.730;-1.932;2024-01-15T00:36:41;100624.75;;;3.51;100.00
49645;BME280;36494;50.730;-1.932;2024-01-15T00:39:10;100623.92;;;3.50;100.00
49645;BME280;36494;50.730;-1.932;2024-01-15T00:41:32;100623.60;;;3.49;100.00
49645;BME280;36494;50.730;-1.932;2024-01-15T00:43:58;100622.63;;;3.50;100.00
49645;BME280;36494;50.730;-1.932;2024-01-15T00:46:23;100619.80;;;3.51;100.00
49645;BME280;36494;50.730;-1.932;2024-01-15T00:48:49;100616.06;;;3.49;100.00
49645;BME280;36494;50.730;-1.932;2024-01-15T00:51:14;100613.37;;;3.51;100.00
49645;BME280;36494;50.730;-1.932;2024-01-15T00:53:40;100614.13;;;3.49;100.00
49645;BME280;36494;50.730;-1.932;2024-01-15T00:56:05;100615.12;;;3.38;100.00
49645;BME280;36494;50.730;-1.932;2024-01-15T00:58:30;100613.01;;;3.47;100.00
49645;BME280;36494;50.730;-1.932;2024-01-15T01:00:56;100610.70;;;3.45;100.00
49645;BME280;36494;50.730;-1.932;2024-01-15T01:03:21;100608.88;;;3.48;100.00
49645;BME280;36494;50.730;-1.932;2024-01-15T01:05:48;100605.53;;;3.44;100.00
49645;BME280;36494;50.730;-1.932;2024-01-15T01:08:12;100606.55;;;3.46;100.00
49645;BME280;36494;50.730;-1.932;2024-01-15T01:10:37;100605.45;;;3.44;100.00
49645;BME280;36494;50.730;-1.932;2024-01-15T01:13:03;100599.37;;;3.42;100.00
49645;BME280;36494;50.730;-1.932;2024-01-15T01:15:35;100596.81;;;3.34;100.00
49645;BME280;36494;50.730;-1.932;2024-01-15T01:17:54;100592.56;;;3.30;100.00
49645;BME280;36494;50.730;-1.932;2024-01-15T01:20:19;100593.87;;;3.35;100.00
49645;BME280;36494;50.730;-1.932;2024-01-15T01:22:45;100597.37;;;3.38;100.00
49645;BME280;36494;50.730;-1.932;2024-01-15T01:25:10;100593.88;;;3.39;100.00
49645;BME280;36494;50.730;-1.932;2024-01-15T01:27:36;100593.45;;;3.38;100.00
49645;BME280;36494;50.730;-1.932;2024-01-15T01:30:01;100591.44;;;3.31;100.00
49645;BME280;36494;50.730;-1.932;2024-01-15T01:32:26;100591.02;;;3.29;100.00
49645;BME280;36494;50.730;-1.932;2024-01-15T01:34:52;100590.18;;;3.26;100.00
49645;BME280;36494;50.730;-1.932;2024-01-15T01:37:18;100589.65;;;3.35;100.00
49645;BME280;36494;50.730;-1.932;2024-01-15T01:39:44;100592.17;;;3.36;100.00
49645;BME280;36494;50.730;-1.932;2024-01-15T01:42:08;100594.72;;;3.38;100.00
49645;BME280;36494;50.730;-1.932;2024-01-15T01:44:33;100594.21;;;3.37;100.00
49645;BME280;36494;50.730;-1.932;2024-01-15T01:46:59;100593.02;;;3.35;100.00
49645;BME280;36494;50.730;-1.932;2024-01-15T01:49:25;100587.57;;;3.37;100.00
49645;BME280;36494;50.730;-1.932;2024-01-15T01:51:50;100591.84;;;3.36;100.00
49645;BME280;36494;50.730;-1.932;2024-01-15T01:54:15;100591.86;;;3.33;100.00
49645;BME280;36494;50.730;-1.932;2024-01-15T01:56:41;100588.59;;;3.36;100.00
49645;BME280;36494;50.730;-1.932;2024-01-15T01:59:07;100588.66;;;3.33;100.00
49645;BME280;36494;50.730;-1.932;2024-01-15T02:01:32;100591.70;;;3.33;100.00
49645;BME280;36494;50.730;-1.932;2024-01-15T02:03:57;100594.94;;;3.36;100.00
49645;BME280;36494;50.730;-1.932;2024-01-15T02:06:23;100592.74;;;3.27;100.00
49645;BME280;36494;50.730;-1.932;2024-01-15T02:08:47;100592.93;;;3.24;100.00
49645;BME280;36494;50.730;-1.932;2024-01-15T02:11:13;100592.00;;;3.32;100.00
49645;BME280;36494;50.730;-1.932;2024-01-15T02:13:39;100590.55;;;3.32;100.00
49645;BME280;36494;50.730;-1.932;2024-01-15T02:16:04;100587.75;;;3.32;100.00
49645;BME280;36494;50.730;-1.932;2024-01-15T02:18:40;100582.80;;;3.29;100.00
49645;BME280;36494;50.730;-1.932;2024-01-15T02:20:55;100580.96;;;3.24;100.00
49645;BME280;36494;50.730;-1.932;2024-01-15T02:23:20;100576.89;;;3.32;100.00
49645;BME280;36494;50.730;-1.932;2024-01-15T02:25:46;100578.52;;;3.22;100.00
49645;BME280;36494;50.730;-1.932;2024-01-15T02:28:12;100578.80;;;3.32;100.00
49645;BME280;36494;50.730;-1.932;2024-01-15T02:30:38;100578.88;;;3.27;100.00
49645;BME280;36494;50.730;-1.932;2024-01-15T02:33:03;100574.58;;;3.31;100.00
49645;BME280;36494;50.730;-1.932;2024-01-15T02:35:27;100576.00;;;3.27;100.00
49645;BME280;36494;50.730;-1.932;2024-01-15T02:37:53;100571.80;;;3.23;100.00
49645;BME280;36494;50.730;-1.932;2024-01-15T02:40:19;100568.91;;;3.17;100.00
49645;BME280;36494;50.730;-1.932;2024-01-15T02:42:44;100573.11;;;3.18;100.00
49645;BME280;36494;50.730;-1.932;2024-01-15T02:45:10;100579.55;;;3.12;100.00
49645;BME280;36494;50.730;-1.932;2024-01-15T02:47:35;100581.84;;;3.05;100.00
49645;BME280;36494;50.730;-1.932;2024-01-15T02:50:01;100579.70;;;3.09;100.00
49645;BME280;36494;50.730;-1.932;2024-01-15T02:52:26;100577.57;;;2.97;100.00
49645;BME280;36494;50.730;-1.932;2024-01-15T02:54:55;100576.94;;;3.02;100.00
49645;BME280;36494;50.730;-1.932;2024-01-15T02:57:17;100577.50;;;3.11;100.00
49645;BME280;36494;50.730;-1.932;2024-01-15T02:59:42;100575.91;;;3.13;100.00
49645;BME280;36494;50.730;-1.932;2024-01-15T03:02:08;100572.71;;;3.14;100.00
49645;BME280;36494;50.730;-1.932;2024-01-15T03:04:33;100569.03;;;3.17;100.00
49645;BME280;36494;50.730;-1.932;2024-01-15T03:06:59;100566.51;;;3.06;100.00
49645;BME280;36494;50.730;-1.932;2024-01-15T03:09:24;100570.94;;;3.12;100.00
49645;BME280;36494;50.730;-1.932;2024-01-15T03:11:50;100572.70;;;3.17;100.00
49645;BME280;36494;50.730;-1.932;2024-01-15T03:14:15;100574.91;;;3.18;100.00
49645;BME280;36494;50.730;-1.932;2024-01-15T03:16:41;100574.35;;;3.17;100.00
49645;BME280;36494;50.730;-1.932;2024-01-15T03:19:08;100573.84;;;3.10;100.00
49645;BME280;36494;50.730;-1.932;2024-01-15T03:21:32;100572.84;;;3.11;100.00
49645;BME280;36494;50.730;-1.932;2024-01-15T03:23:57;100571.61;;;3.14;100.00
49645;BME280;36494;50.730;-1.932;2024-01-15T03:26:23;100570.26;;;3.15;100.00
49645;BME280;36494;50.730;-1.932;2024-01-15T03:28:48;100568.13;;;3.18;100.00
49645;BME280;36494;50.730;-1.932;2024-01-15T03:31:14;100568.43;;;3.20;100.00
49645;BME280;36494;50.730;-1.932;2024-01-15T03:33:39;100567.82;;;3.20;100.00
49645;BME280;36494;50.730;-1.932;2024-01-15T03:36:05;100570.74;;;3.17;100.00
49645;BME280;36494;50.730;-1.932;2024-01-15T03:38:30;100569.20;;;3.17;100.00
49645;BME280;36494;50.730;-1.932;2024-01-15T03:40:55;100562.12;;;3.16;100.00
49645;BME280;36494;50.730;-1.932;2024-01-15T03:43:21;100558.75;;;3.16;100.00
49645;BME280;36494;50.730;-1.932;2024-01-15T03:45:46;100556.29;;;3.07;100.00
49645;BME280;36494;50.730;-1.932;2024-01-15T03:48:12;100552.45;;;3.09;100.00
49645;BME280;36494;50.730;-1.932;2024-01-15T03:50:37;100548.54;;;2.97;100.00
49645;BME280;36494;50.730;-1.932;2024-01-15T03:53:03;100540.45;;;3.04;100.00
49645;BME280;36494;50.730;-1.932;2024-01-15T03:55:28;100542.76;;;2.98;100.00
49645;BME280;36494;50.730;-1.932;2024-01-15T03:57:54;100546.00;;;2.96;100.00
49645;BME280;36494;50.730;-1.932;2024-01-15T04:00:19;100547.18;;;2.94;100.00
49645;BME280;36494;50.730;-1.932;2024-01-15T04:02:45;100542.01;;;2.83;100.00
49645;BME280;36494;50.730;-1.932;2024-01-15T04:05:10;100537.48;;;2.86;100.00
49645;BME280;36494;50.730;-1.932;2024-01-15T04:07:36;100536.69;;;2.87;100.00
49645;BME280;36494;50.730;-1.932;2024-01-15T04:10:01;100530.35;;;2.84;100.00
49645;BME280;36494;50.730;-1.932;2024-01-15T04:12:27;100527.99;;;2.85;100.00
49645;BME280;36494;50.730;-1.932;2024-01-15T04:14:52;100525.94;;;2.77;100.00
49645;BME280;36494;50.730;-1.932;2024-01-15T04:17:18;100525.62;;;2.78;100.00
49645;BME280;36494;50.730;-1.932;2024-01-15T04:19:43;100527.04;;;2.84;100.00
49645;BME280;36494;50.730;-1.932;2024-01-15T04:22:08;100525.83;;;2.83;100.00
49645;BME280;36494;50.730;-1.932;2024-01-15T04:24:34;100524.29;;;2.91;100.00
49645;BME280;36494;50.730;-1.932;2024-01-15T04:27:00;100521.30;;;2.91;100.00
49645;BME280;36494;50.730;-1.932;2024-01-15T04:29:25;100521.49;;;2.92;100.00
49645;BME280;36494;50.730;-1.932;2024-01-15T04:31:52;100517.10;;;2.85;100.00
49645;BME280;36494;50.730;-1.932;2024-01-15T04:34:16;100518.23;;;2.93;100.00
49645;BME280;36494;50.730;-1.932;2024-01-15T04:36:41;100511.77;;;2.99;100.00
49645;BME280;36494;50.730;-1.932;2024-01-15T04:39:07;100510.87;;;2.88;100.00
49645;BME280;36494;50.730;-1.932;2024-01-15T04:41:32;100509.70;;;2.86;100.00
49645;BME280;36494;50.730;-1.932;2024-01-15T04:43:58;100512.93;;;2.93;100.00
49645;BME280;36494;50.730;-1.932;2024-01-15T04:46:23;100511.36;;;2.98;100.00
49645;BME280;36494;50.730;-1.932;2024-01-15T04:48:49;100512.21;;;2.95;100.00
49645;BME280;36494;50.730;-1.932;2024-01-15T04:51:17;100515.01;;;2.94;100.00
49645;BME280;36494;50.730;-1.932;2024-01-15T04:53:40;100512.75;;;2.99;100.00
49645;BME280;36494;50.730;-1.932;2024-01-15T04:56:05;100515.12;;;2.94;100.00
49645;BME280;36494;50.730;-1.932;2024-01-15T04:58:31;100515.21;;;2.95;100.00
49645;BME280;36494;50.730;-1.932;2024-01-15T05:00:56;100515.05;;;3.05;100.00
49645;BME280;36494;50.730;-1.932;2024-01-15T05:03:22;100516.15;;;3.03;100.00
49645;BME280;36494;50.730;-1.932;2024-01-15T05:05:47;100516.88;;;3.03;100.00
49645;BME280;36494;50.730;-1.932;2024-01-15T05:08:13;100517.53;;;2.94;100.00
49645;BME280;36494;50.730;-1.932;2024-01-15T05:10:38;100512.85;;;3.04;100.00
49645;BME280;36494;50.730;-1.932;2024-01-15T05:13:04;100517.86;;;2.94;100.00
49645;BME280;36494;50.730;-1.932;2024-01-15T05:15:32;100520.07;;;2.94;100.00
49645;BME280;36494;50.730;-1.932;2024-01-15T05:17:55;100520.67;;;2.96;100.00
49645;BME280;36494;50.730;-1.932;2024-01-15T05:20:20;100518.80;;;2.87;100.00
49645;BME280;36494;50.730;-1.932;2024-01-15T05:22:45;100519.85;;;2.94;100.00
49645;BME280;36494;50.730;-1.932;2024-01-15T05:25:11;100520.18;;;2.95;100.00
49645;BME280;36494;50.730;-1.932;2024-01-15T05:27:36;100522.18;;;2.91;100.00
49645;BME280;36494;50.730;-1.932;2024-01-15T05:30:02;100523.56;;;2.88;100.00
49645;BME280;36494;50.730;-1.932;2024-01-15T05:32:28;100527.44;;;2.86;100.00
49645;BME280;36494;50.730;-1.932;2024-01-15T05:34:53;100527.21;;;2.87;100.00
49645;BME280;36494;50.730;-1.932;2024-01-15T05:37:18;100523.98;;;2.87;100.00
49645;BME280;36494;50.730;-1.932;2024-01-15T05:39:44;100525.59;;;2.78;100.00
49645;BME280;36494;50.730;-1.932;2024-01-15T05:42:09;100527.74;;;2.78;100.00
49645;BME280;36494;50.730;-1.932;2024-01-15T05:44:35;100531.51;;;2.77;100.00
49645;BME280;36494;50.730;-1.932;2024-01-15T05:47:00;100534.67;;;2.77;100.00
49645;BME280;36494;50.730;-1.932;2024-01-15T05:49:26;100534.83;;;2.75;100.00
49645;BME280;36494;50.730;-1.932;2024-01-15T05:51:51;100537.46;;;2.71;100.00
49645;BME280;36494;50.730;-1.932;2024-01-15T05:54:18;100541.35;;;2.68;100.00
49645;BME280;36494;50.730;-1.932;2024-01-15T05:56:42;100543.91;;;2.70;100.00
49645;BME280;36494;50.730;-1.932;2024-01-15T05:59:08;100544.81;;;2.67;100.00
49645;BME280;36494;50.730;-1.932;2024-01-15T06:01:33;100543.68;;;2.63;100.00
49645;BME280;36494;50.730;-1.932;2024-01-15T06:03:59;100543.43;;;2.57;100.00
49645;BME280;36494;50.730;-1.932;2024-01-15T06:06:24;100544.29;;;2.45;100.00
49645;BME280;36494;50.730;-1.932;2024-01-15T06:08:49;100542.58;;;2.49;100.00
49645;BME280;36494;50.730;-1.932;2024-01-15T06:11:15;100542.84;;;2.44;100.00
49645;BME280;36494;50.730;-1.932;2024-01-15T06:13:40;100544.26;;;2.45;100.00
49645;BME280;36494;50.730;-1.932;2024-01-15T06:16:13;100543.90;;;2.39;100.00
49645;BME280;36494;50.730;-1.932;2024-01-15T06:18:31;100545.51;;;2.36;100.00
49645;BME280;36494;50.730;-1.932;2024-01-15T06:20:57;100548.91;;;2.28;100.00
49645;BME280;36494;50.730;-1.932;2024-01-15T06:23:22;100550.89;;;2.27;100.00
49645;BME280;36494;50.730;-1.932;2024-01-15T06:25:48;100549.87;;;2.18;100.00
49645;BME280;36494;50.730;-1.932;2024-01-15T06:28:13;100554.82;;;2.16;100.00
49645;BME280;36494;50.730;-1.932;2024-01-15T06:30:39;100559.78;;;2.04;100.00
49645;BME280;36494;50.730;-1.932;2024-01-15T06:33:04;100564.11;;;2.11;100.00
49645;BME280;36494;50.730;-1.932;2024-01-15T06:35:30;100563.97;;;2.02;100.00
49645;BME280;36494;50.730;-1.932;2024-01-15T06:37:55;100562.72;;;2.13;100.00
49645;BME280;36494;50.730;-1.932;2024-01-15T06:40:23;100560.62;;;1.97;100.00
49645;BME280;36494;50.730;-1.932;2024-01-15T06:42:46;100558.18;;;1.95;100.00
49645;BME280;36494;50.730;-1.932;2024-01-15T06:45:11;100561.45;;;1.89;100.00
49645;BME280;36494;50.730;-1.932;2024-01-15T06:47:37;100567.79;;;1.88;100.00
49645;BME280;36494;50.730;-1.932;2024-01-15T06:50:03;100566.93;;;1.87;100.00
49645;BME280;36494;50.730;-1.932;2024-01-15T06:52:28;100561.72;;;1.87;100.00
49645;BME280;36494;50.730;-1.932;2024-01-15T06:54:53;100569.32;;;1.86;100.00
49645;BME280;36494;50.730;-1.932;2024-01-15T06:57:19;100568.23;;;1.81;100.00
49645;BME280;36494;50.730;-1.932;2024-01-15T06:59:44;100569.15;;;1.88;100.00
49645;BME280;36494;50.730;-1.932;2024-01-15T07:02:10;100573.11;;;1.78;100.00
49645;BME280;36494;50.730;-1.932;2024-01-15T07:04:35;100570.89;;;1.75;100.00
49645;BME280;36494;50.730;-1.932;2024-01-15T07:07:01;100573.63;;;1.70;100.00
49645;BME280;36494;50.730;-1.932;2024-01-15T07:09:26;100568.59;;;1.57;100.00
49645;BME280;36494;50.730;-1.932;2024-01-15T07:11:52;100573.33;;;1.51;100.00
49645;BME280;36494;50.730;-1.932;2024-01-15T07:14:17;100572.52;;;1.49;100.00
49645;BME280;36494;50.730;-1.932;2024-01-15T07:16:43;100575.39;;;1.41;100.00
49645;BME280;36494;50.730;-1.932;2024-01-15T07:19:09;100574.75;;;1.32;100.00
49645;BME280;36494;50.730;-1.932;2024-01-15T07:21:34;100578.30;;;1.36;100.00
49645;BME280;36494;50.730;-1.932;2024-01-15T07:24:00;100582.57;;;1.41;100.00
49645;BME280;36494;50.730;-1.932;2024-01-15T07:26:25;100584.02;;;1.32;100.00
49645;BME280;36494;50.730;-1.932;2024-01-15T07:28:50;100578.18;;;1.26;100.00
49645;BME280;36494;50.730;-1.932;2024-01-15T07:31:16;100580.71;;;1.18;100.00
49645;BME280;36494;50.730;-1.932;2024-01-15T07:33:41;100582.59;;;1.13;100.00
49645;BME280;36494;50.730;-1.932;2024-01-15T07:36:07;100579.95;;;1.15;100.00
49645;BME280;36494;50.730;-1.932;2024-01-15T07:38:32;100585.91;;;1.16;100.00
49645;BME280;36494;50.730;-1.932;2024-01-15T07:40:58;100589.12;;;1.19;100.00
49645;BME280;36494;50.730;-1.932;2024-01-15T07:43:23;100592.79;;;1.18;100.00
49645;BME280;36494;50.730;-1.932;2024-01-15T07:45:49;100596.51;;;1.14;100.00
49645;BME280;36494;50.730;-1.932;2024-01-15T07:48:15;100607.77;;;1.06;100.00
49645;BME280;36494;50.730;-1.932;2024-01-15T07:50:40;100609.43;;;0.99;100.00
49645;BME280;36494;50.730;-1.932;2024-01-15T07:53:06;100608.47;;;1.00;100.00
49645;BME280;36494;50.730;-1.932;2024-01-15T07:55:34;100611.41;;;1.03;100.00
49645;BME280;36494;50.730;-1.932;2024-01-15T07:57:57;100608.94;;;0.99;100.00
49645;BME280;36494;50.730;-1.932;2024-01-15T08:00:22;100607.72;;;0.99;100.00
49645;BME280;36494;50.730;-1.932;2024-01-15T08:02:47;100613.14;;;0.99;100.00
49645;BME280;36494;50.730;-1.932;2024-01-15T08:05:13;100617.04;;;0.92;100.00
49645;BME280;36494;50.730;-1.932;2024-01-15T08:07:38;100620.62;;;0.82;100.00
49645;BME280;36494;50.730;-1.932;2024-01-15T08:10:05;100624.70;;;0.87;100.00
49645;BME280;36494;50.730;-1.932;2024-01-15T08:12:29;100628.49;;;0.89;100.00
49645;BME280;36494;50.730;-1.932;2024-01-15T08:14:55;100625.11;;;0.83;100.00
49645;BME280;36494;50.730;-1.932;2024-01-15T08:17:21;100621.68;;;0.85;100.00
49645;BME280;36494;50.730;-1.932;2024-01-15T08:19:46;100621.31;;;0.78;100.00
49645;BME280;36494;50.730;-1.932;2024-01-15T08:22:12;100624.00;;;0.84;100.00
49645;BME280;36494;50.730;-1.932;2024-01-15T08:24:37;100628.02;;;0.81;100.00
49645;BME280;36494;50.730;-1.932;2024-01-15T08:27:03;100627.23;;;0.74;100.00
49645;BME280;36494;50.730;-1.932;2024-01-15T08:29:28;100634.68;;;0.65;100.00
49645;BME280;36494;50.730;-1.932;2024-01-15T08:31:54;100638.28;;;0.55;100.00
49645;BME280;36494;50.730;-1.932;2024-01-15T08:34:19;100637.43;;;0.52;100.00
49645;BME280;36494;50.730;-1.932;2024-01-15T08:36:45;100641.12;;;0.54;100.00
49645;BME280;36494;50.730;-1.932;2024-01-15T08:39:10;100642.00;;;0.57;100.00
49645;BME280;36494;50.730;-1.932;2024-01-15T08:41:36;100642.49;;;0.47;100.00
49645;BME280;36494;50.730;-1.932;2024-01-15T08:44:03;100637.73;;;0.58;100.00
49645;BME280;36494;50.730;-1.932;2024-01-15T08:46:27;100635.77;;;0.52;100.00
49645;BME280;36494;50.730;-1.932;2024-01-15T08:48:52;100633.19;;;0.53;100.00
49645;BME280;36494;50.730;-1.932;2024-01-15T08:51:18;100637.29;;;0.51;100.00
49645;BME280;36494;50.730;-1.932;2024-01-15T08:53:43;100641.65;;;0.56;100.00
49645;BME280;36494;50.730;-1.932;2024-01-15T08:56:09;100644.79;;;0.60;100.00
49645;BME280;36494;50.730;-1.932;2024-01-15T08:58:34;100643.79;;;0.61;100.00
49645;BME280;36494;50.730;-1.932;2024-01-15T09:01:00;100649.83;;;0.61;100.00
49645;BME280;36494;50.730;-1.932;2024-01-15T09:03:25;100648.75;;;0.59;100.00
49645;BME280;36494;50.730;-1.932;2024-01-15T09:05:51;100653.39;;;0.63;100.00
49645;BME280;36494;50.730;-1.932;2024-01-15T09:08:16;100655.66;;;0.65;100.00
49645;BME280;36494;50.730;-1.932;2024-01-15T09:10:42;100659.10;;;0.65;100.00
49645;BME280;36494;50.730;-1.932;2024-01-15T09:13:07;100657.23;;;0.66;100.00
49645;BME280;36494;50.730;-1.932;2024-01-15T09:15:33;100656.47;;;0.72;100.00
49645;BME280;36494;50.730;-1.932;2024-01-15T09:17:59;100655.56;;;0.71;100.00
49645;BME280;36494;50.730;-1.932;2024-01-15T09:20:24;100654.12;;;0.71;100.00
49645;BME280;36494;50.730;-1.932;2024-01-15T09:22:50;100657.45;;;0.75;100.00
49645;BME280;36494;50.730;-1.932;2024-01-15T09:25:15;100661.68;;;0.80;100.00
49645;BME280;36494;50.730;-1.932;2024-01-15T09:27:41;100661.50;;;0.83;100.00
49645;BME280;36494;50.730;-1.932;2024-01-15T09:30:07;100664.85;;;0.78;100.00
49645;BME280;36494;50.730;-1.932;2024-01-15T09:32:32;100665.42;;;0.85;100.00
49645;BME280;36494;50.730;-1.932;2024-01-15T09:34:57;100660.25;;;0.87;100.00
49645;BME280;36494;50.730;-1.932;2024-01-15T09:37:23;100662.16;;;0.90;100.00
49645;BME280;36494;50.730;-1.932;2024-01-15T09:39:48;100669.41;;;0.93;100.00
49645;BME280;36494;50.730;-1.932;2024-01-15T09:42:14;100674.76;;;0.96;100.00
49645;BME280;36494;50.730;-1.932;2024-01-15T09:44:42;100677.08;;;0.97;100.00
49645;BME280;36494;50.730;-1.932;2024-01-15T09:47:05;100678.52;;;1.02;100.00
49645;BME280;36494;50.730;-1.932;2024-01-15T09:49:30;100676.21;;;1.05;100.00
49645;BME280;36494;50.730;-1.932;2024-01-15T09:51:57;100678.29;;;1.09;100.00
49645;BME280;36494;50.730;-1.932;2024-01-15T09:54:21;100678.19;;;1.12;100.00
49645;BME280;36494;50.730;-1.932;2024-01-15T09:56:47;100678.74;;;1.16;100.00
49645;BME280;36494;50.730;-1.932;2024-01-15T09:59:14;100684.33;;;1.18;100.00
49645;BME280;36494;50.730;-1.932;2024-01-15T10:01:38;100684.36;;;1.21;100.00
49645;BME280;36494;50.730;-1.932;2024-01-15T10:04:03;100686.99;;;1.27;100.00
49645;BME280;36494;50.730;-1.932;2024-01-15T10:06:29;100687.70;;;1.30;100.00
49645;BME280;36494;50.730;-1.932;2024-01-15T10:08:56;100688.55;;;1.34;100.00
49645;BME280;36494;50.730;-1.932;2024-01-15T10:11:20;100691.91;;;1.40;100.00
49645;BME280;36494;50.730;-1.932;2024-01-15T10:13:46;100692.86;;;1.43;100.00
49645;BME280;36494;50.730;-1.932;2024-01-15T10:16:11;100696.02;;;1.45;100.00
49645;BME280;36494;50.730;-1.932;2024-01-15T10:18:37;100694.47;;;1.48;100.00
49645;BME280;36494;50.730;-1.932;2024-01-15T10:21:02;100695.10;;;1.54;100.00
49645;BME280;36494;50.730;-1.932;2024-01-15T10:23:27;100697.92;;;1.58;100.00
49645;BME280;36494;50.730;-1.932;2024-01-15T10:25:52;100699.86;;;1.63;100.00
49645;BME280;36494;50.730;-1.932;2024-01-15T10:28:19;100703.29;;;1.69;100.00
49645;BME280;36494;50.730;-1.932;2024-01-15T10:30:44;100711.25;;;1.74;100.00
49645;BME280;36494;50.730;-1.932;2024-01-15T10:33:09;100713.55;;;1.76;100.00
49645;BME280;36494;50.730;-1.932;2024-01-15T10:35:35;100716.88;;;1.84;100.00
49645;BME280;36494;50.730;-1.932;2024-01-15T10:38:00;100719.79;;;1.84;100.00
49645;BME280;36494;50.730;-1.932;2024-01-15T10:40:26;100722.00;;;1.88;100.00
49645;BME280;36494;50.730;-1.932;2024-01-15T10:42:51;100725.23;;;1.93;100.00
49645;BME280;36494;50.730;-1.932;2024-01-15T10:45:17;100726.43;;;1.97;100.00
49645;BME280;36494;50.730;-1.932;2024-01-15T10:47:43;100727.89;;;2.04;100.00
49645;BME280;36494;50.730;-1.932;2024-01-15T10:50:08;100731.14;;;2.09;100.00
49645;BME280;36494;50.730;-1.932;2024-01-15T10:52:34;100726.44;;;2.16;100.00
49645;BME280;36494;50.730;-1.932;2024-01-15T10:54:59;100729.58;;;2.22;100.00
49645;BME280;36494;50.730;-1.932;2024-01-15T10:57:26;100735.10;;;2.27;100.00
49645;BME280;36494;50.730;-1.932;2024-01-15T10:59:49;100735.63;;;2.31;100.00
49645;BME280;36494;50.730;-1.932;2024-01-15T11:02:18;100734.28;;;2.35;100.00
49645;BME280;36494;50.730;-1.932;2024-01-15T11:04:40;100738.38;;;2.38;100.00
49645;BME280;36494;50.730;-1.932;2024-01-15T11:07:06;100728.81;;;2.44;100.00
49645;BME280;36494;50.730;-1.932;2024-01-15T11:09:31;100730.26;;;2.47;100.00
49645;BME280;36494;50.730;-1.932;2024-01-15T11:12:06;100722.93;;;2.51;100.00
49645;BME280;36494;50.730;-1.932;2024-01-15T11:14:34;100722.38;;;2.55;100.00
49645;BME280;36494;50.730;-1.932;2024-01-15T11:16:54;100724.54;;;2.60;100.00
49645;BME280;36494;50.730;-1.932;2024-01-15T11:19:13;100722.43;;;2.63;100.00
49645;BME280;36494;50.730;-1.932;2024-01-15T11:21:42;100718.23;;;2.69;100.00
49645;BME280;36494;50.730;-1.932;2024-01-15T11:24:04;100717.32;;;2.72;100.00
49645;BME280;36494;50.730;-1.932;2024-01-15T11:26:34;100719.58;;;2.77;100.00
49645;BME280;36494;50.730;-1.932;2024-01-15T11:28:56;100723.23;;;2.84;100.00
49645;BME280;36494;50.730;-1.932;2024-01-15T11:31:20;100725.93;;;2.87;100.00
49645;BME280;36494;50.730;-1.932;2024-01-15T11:33:48;100726.14;;;2.90;100.00
49645;BME280;36494;50.730;-1.932;2024-01-15T11:36:11;100726.54;;;2.94;100.00
49645;BME280;36494;50.730;-1.932;2024-01-15T11:38:37;100725.77;;;2.95;100.00
49645;BME280;36494;50.730;-1.932;2024-01-15T11:43:28;100724.18;;;2.99;100.00
49645;BME280;36494;50.730;-1.932;2024-01-15T11:45:54;100720.40;;;2.96;100.00
49645;BME280;36494;50.730;-1.932;2024-01-15T11:48:19;100720.95;;;3.00;100.00
49645;BME280;36494;50.730;-1.932;2024-01-15T11:50:46;100718.71;;;3.02;100.00
49645;BME280;36494;50.730;-1.932;2024-01-15T11:53:16;100713.51;;;3.04;100.00
49645;BME280;36494;50.730;-1.932;2024-01-15T11:55:37;100719.15;;;3.12;100.00
49645;BME280;36494;50.730;-1.932;2024-01-15T11:58:02;100720.06;;;3.14;100.00
49645;BME280;36494;50.730;-1.932;2024-01-15T12:00:26;100718.04;;;3.18;100.00
49645;BME280;36494;50.730;-1.932;2024-01-15T12:02:52;100720.40;;;3.16;100.00
49645;BME280;36494;50.730;-1.932;2024-01-15T12:05:18;100724.33;;;3.22;100.00
49645;BME280;36494;50.730;-1.932;2024-01-15T12:07:44;100728.17;;;3.28;100.00
49645;BME280;36494;50.730;-1.932;2024-01-15T12:10:09;100728.21;;;3.24;100.00
49645;BME280;36494;50.730;-1.932;2024-01-15T12:12:39;100734.81;;;3.30;100.00
49645;BME280;36494;50.730;-1.932;2024-01-15T12:15:01;100738.86;;;3.34;100.00
49645;BME280;36494;50.730;-1.932;2024-01-15T12:17:24;100745.82;;;3.40;100.00
49645;BME280;36494;50.730;-1.932;2024-01-15T12:19:50;100743.36;;;3.41;100.00
49645;BME280;36494;50.730;-1.932;2024-01-15T12:22:15;100744.33;;;3.41;100.00
49645;BME280;36494;50.730;-1.932;2024-01-15T12:24:41;100744.25;;;3.41;100.00
49645;BME280;36494;50.730;-1.932;2024-01-15T12:27:07;100740.10;;;3.45;100.00
49645;BME280;36494;50.730;-1.932;2024-01-15T12:29:32;100737.77;;;3.44;100.00
49645;BME280;36494;50.730;-1.932;2024-01-15T12:31:57;100741.47;;;3.47;100.00